createdAt,value
2023-05-05T00:02:41.306Z,99768.78
2023-05-05T00:07:43.091Z,99783.16
2023-05-05T00:12:44.882Z,99761.47
2023-05-05T00:17:46.608Z,99729.41
2023-05-05T00:22:48.783Z,99759.03
2023-05-05T00:27:50.608Z,99796.03
2023-05-05T00:32:52.507Z,99758.50
2023-05-05T00:37:55.248Z,99772.31
2023-05-05T00:42:56.912Z,99753.94
2023-05-05T00:47:59.971Z,99749.84
2023-05-05T00:53:05.948Z,99726.16
2023-05-05T00:58:08.058Z,99799.47
2023-05-05T01:03:09.954Z,99763.13
2023-05-05T01:08:25.630Z,99728.88
2023-05-05T01:13:42.861Z,99750.38
2023-05-05T01:18:58.383Z,99753.84
2023-05-05T01:24:24.780Z,99753.72
2023-05-05T01:29:26.536Z,99779.78
2023-05-05T01:34:34.494Z,99792.69
2023-05-05T01:39:38.701Z,99778.59
2023-05-05T01:44:43.755Z,99785.63
2023-05-05T01:49:47.836Z,99770.75
2023-05-05T01:54:50.737Z,99767.94
2023-05-05T01:59:53.695Z,99808.78
2023-05-05T02:04:57.969Z,99785.50
2023-05-05T02:10:02.558Z,99817.56
2023-05-05T02:15:05.827Z,99816.94
2023-05-05T02:20:12.223Z,99808.13
2023-05-05T02:25:14.113Z,99788.69
2023-05-05T02:30:20.053Z,99853.13
2023-05-05T02:35:26.848Z,99864.56
2023-05-05T02:40:31.108Z,99829.09
2023-05-05T02:45:33.084Z,99836.84
2023-05-05T02:50:34.742Z,99820.66
2023-05-05T02:56:06.187Z,99818.94
2023-05-05T03:01:31.134Z,99807.59
2023-05-05T03:06:39.506Z,99819.41
2023-05-05T03:12:06.955Z,99832.50
2023-05-05T03:17:12.941Z,99833.59
2023-05-05T03:22:14.795Z,99825.94
2023-05-05T03:27:16.549Z,99817.22
2023-05-05T03:32:18.241Z,99864.81
2023-05-05T03:37:19.849Z,99823.63
2023-05-05T03:42:21.655Z,99805.41
2023-05-05T03:47:24.732Z,99822.03
2023-05-05T03:52:26.420Z,99816.19
2023-05-05T03:57:28.155Z,99814.72
2023-05-05T04:02:29.867Z,99852.13
2023-05-05T04:07:31.577Z,99873.69
2023-05-05T04:12:33.405Z,99823.63
2023-05-05T04:17:35.230Z,99873.41
2023-05-05T04:22:37.086Z,99869.72
2023-05-05T04:27:38.949Z,99891.78
2023-05-05T04:32:40.922Z,99892.84
2023-05-05T04:37:42.667Z,99869.19
2023-05-05T04:42:44.340Z,99912.63
2023-05-05T04:47:46.563Z,99914.31
2023-05-05T04:52:48.603Z,99916.56
2023-05-05T04:57:50.253Z,99902.59
2023-05-05T05:02:52.617Z,99896.53
2023-05-05T05:07:54.377Z,99893.28
2023-05-05T05:12:56.126Z,99934.66
2023-05-05T05:17:57.977Z,99877.91
2023-05-05T05:23:02.158Z,99900.41
2023-05-05T05:28:10.267Z,99940.53
2023-05-05T05:33:12.577Z,99914.69
2023-05-05T05:38:14.484Z,99954.38
2023-05-05T05:43:16.171Z,99950.75
2023-05-05T05:48:17.909Z,99977.03
2023-05-05T05:53:19.757Z,99928.38
2023-05-05T05:58:21.536Z,99949.94
2023-05-05T06:03:23.390Z,99924.00
2023-05-05T06:08:25.559Z,99949.31
2023-05-05T06:13:27.422Z,99882.81
2023-05-05T06:18:29.028Z,99888.47
2023-05-05T06:23:30.845Z,99873.97
2023-05-05T06:28:32.547Z,99899.03
2023-05-05T06:33:34.294Z,99893.91
2023-05-05T06:38:36.529Z,99875.16
2023-05-05T06:43:38.155Z,99878.03
2023-05-05T06:48:40.176Z,99890.16
2023-05-05T06:53:41.968Z,99872.06
2023-05-05T06:58:43.738Z,99889.50
2023-05-05T07:03:45.667Z,99902.38
2023-05-05T07:08:47.383Z,99859.59
2023-05-05T07:13:49.460Z,99850.88
2023-05-05T07:18:51.078Z,99890.22
2023-05-05T07:23:52.896Z,99883.31
2023-05-05T07:28:57.268Z,99846.72
2023-05-05T07:33:58.913Z,99827.06
2023-05-05T07:39:00.873Z,99807.25
2023-05-05T07:44:02.526Z,99814.69
2023-05-05T07:49:04.298Z,99785.97
2023-05-05T07:54:06.142Z,99736.81
2023-05-05T07:59:07.883Z,99757.88
2023-05-05T08:04:10.024Z,99730.56
2023-05-05T08:09:11.914Z,99757.44
2023-05-05T08:14:13.712Z,99745.66
2023-05-05T08:19:25.276Z,99659.94
2023-05-05T08:24:30.176Z,99705.22
2023-05-05T08:29:31.793Z,99717.88
2023-05-05T08:34:33.423Z,99738.28
2023-05-05T08:39:35.392Z,99732.91
2023-05-05T08:44:37.141Z,99717.38
2023-05-05T08:49:48.026Z,99694.91
2023-05-05T08:55:07.027Z,99707.03
2023-05-05T09:00:10.932Z,99692.09
2023-05-05T09:05:12.615Z,99701.22
2023-05-05T09:10:14.452Z,99685.69
2023-05-05T09:15:16.470Z,99641.03
2023-05-05T09:20:18.321Z,99665.81
2023-05-05T09:25:20.007Z,99658.34
2023-05-05T09:30:26.992Z,99643.38
2023-05-05T09:35:29.291Z,99662.44
2023-05-05T09:40:46.650Z,99672.59
2023-05-05T09:45:49.143Z,99643.47
2023-05-05T09:50:51.257Z,99627.06
2023-05-05T09:56:00.551Z,99649.16
2023-05-05T10:01:02.238Z,99648.94
2023-05-05T10:06:04.777Z,99632.81
2023-05-05T10:11:07.190Z,99618.25
2023-05-05T10:16:12.141Z,99650.94
2023-05-05T10:21:18.153Z,99591.81
2023-05-05T10:26:22.549Z,99575.75
2023-05-05T10:31:30.210Z,99575.41
2023-05-05T10:36:32.428Z,99565.09
2023-05-05T10:41:34.336Z,99560.66
2023-05-05T10:46:36.499Z,99547.59
2023-05-05T10:51:54.984Z,99488.03
2023-05-05T10:56:59.085Z,99560.25
2023-05-05T11:06:31.097Z,99632.00
2023-05-05T11:12:05.430Z,99601.94
2023-05-05T11:17:45.829Z,99596.50
2023-05-05T11:23:02.949Z,99571.16
2023-05-05T11:28:15.311Z,99620.09
2023-05-05T11:33:26.517Z,99594.00
2023-05-05T11:38:49.744Z,99563.59
2023-05-05T11:44:08.606Z,99615.50
2023-05-05T11:49:10.834Z,99562.50
2023-05-05T11:54:13.705Z,99521.94
2023-05-05T11:59:15.465Z,99590.56
2023-05-05T12:04:19.648Z,99519.53
2023-05-05T12:09:23.226Z,99532.88
2023-05-05T12:14:25.676Z,99508.88
2023-05-05T12:19:33.245Z,99568.78
2023-05-05T12:24:35.162Z,99556.13
2023-05-05T12:29:37.042Z,99585.03
2023-05-05T12:34:38.956Z,99505.47
2023-05-05T12:39:40.634Z,99458.44
2023-05-05T12:44:44.227Z,99466.22
2023-05-05T12:49:50.499Z,99439.06
2023-05-05T12:54:59.729Z,99437.59
2023-05-05T13:00:13.712Z,99512.09
2023-05-05T13:05:15.357Z,99459.97
2023-05-05T13:10:16.988Z,99431.47
2023-05-05T13:15:18.582Z,99404.91
2023-05-05T13:20:20.187Z,99439.34
2023-05-05T13:25:21.755Z,99444.84
2023-05-05T13:30:23.389Z,99455.25
2023-05-05T13:35:25.101Z,99457.31
2023-05-05T13:40:26.735Z,99371.88
2023-05-05T13:45:28.922Z,99427.28
2023-05-05T13:50:30.524Z,99408.78
2023-05-05T13:55:32.158Z,99410.88
2023-05-05T14:00:34.813Z,99410.97
2023-05-05T14:05:37.516Z,99351.25
2023-05-05T14:10:40.501Z,99437.41
2023-05-05T14:15:42.473Z,99378.97
2023-05-05T14:20:44.082Z,99365.50
2023-05-05T14:25:45.848Z,99345.88
2023-05-05T14:30:47.440Z,99335.00
2023-05-05T14:35:49.304Z,99390.81
2023-05-05T14:40:51.019Z,99375.19
2023-05-05T14:45:53.227Z,99388.66
2023-05-05T14:50:54.824Z,99392.09
2023-05-05T14:55:56.558Z,99391.00
2023-05-05T15:00:58.329Z,99503.25
2023-05-05T15:05:59.971Z,99530.59
2023-05-05T15:11:01.737Z,99543.78
2023-05-05T15:16:03.421Z,99650.81
2023-05-05T15:21:05.188Z,99585.66
2023-05-05T15:26:07.226Z,99558.63
2023-05-05T15:31:08.862Z,99599.69
2023-05-05T15:36:10.660Z,99586.66
2023-05-05T15:41:12.209Z,99642.75
2023-05-05T15:46:13.920Z,99621.63
2023-05-05T15:51:15.610Z,99624.69
2023-05-05T15:56:17.279Z,99592.16
2023-05-05T16:01:18.955Z,99640.25
2023-05-05T16:06:20.588Z,99620.00
2023-05-05T16:11:23.570Z,99699.84
2023-05-05T16:16:25.166Z,99644.81
2023-05-05T16:21:27.608Z,99630.31
2023-05-05T16:26:29.161Z,99576.34
2023-05-05T16:31:32.095Z,99541.56
2023-05-05T16:36:33.788Z,99597.19
2023-05-05T16:41:35.411Z,99623.94
2023-05-05T16:46:37.549Z,99510.09
2023-05-05T16:51:39.525Z,99565.47
2023-05-05T16:56:41.079Z,99547.91
2023-05-05T17:01:43.439Z,99584.91
2023-05-05T17:06:45.090Z,99576.97
2023-05-05T17:11:46.721Z,99659.09
2023-05-05T17:16:48.357Z,99691.22
2023-05-05T17:21:49.972Z,99657.50
2023-05-05T17:26:51.940Z,99623.63
2023-05-05T17:31:54.230Z,99726.50
2023-05-05T17:36:56.383Z,99724.69
2023-05-05T17:41:57.971Z,99789.28
2023-05-05T17:46:59.569Z,99768.09
2023-05-05T17:52:01.272Z,99709.38
2023-05-05T17:57:02.938Z,99718.50
2023-05-05T18:02:04.841Z,99736.06
2023-05-05T18:07:06.634Z,99749.22
2023-05-05T18:12:08.343Z,99773.13
2023-05-05T18:17:10.030Z,99806.94
2023-05-05T18:22:12.064Z,99790.59
2023-05-05T18:27:13.726Z,99778.63
2023-05-05T18:32:15.691Z,99768.69
2023-05-05T18:37:17.289Z,99805.47
2023-05-05T18:42:18.855Z,99834.66
2023-05-05T18:47:20.564Z,99851.03
2023-05-05T18:52:22.107Z,99844.72
2023-05-05T18:57:23.717Z,99846.63
2023-05-05T19:02:25.398Z,99860.41
2023-05-05T19:12:49.922Z,99838.69
2023-05-05T19:17:52.454Z,99778.34
2023-05-05T19:22:54.292Z,99806.91
2023-05-05T19:27:55.916Z,99800.88
2023-05-05T19:32:57.568Z,99824.91
2023-05-05T19:37:59.579Z,99848.88
2023-05-05T19:43:01.151Z,99817.09
2023-05-05T19:48:02.985Z,99831.34
2023-05-05T19:53:04.832Z,99827.38
2023-05-05T19:58:06.424Z,99828.13
2023-05-05T20:03:08.763Z,99820.38
2023-05-05T20:08:10.521Z,99848.94
2023-05-05T20:13:19.738Z,99851.94
2023-05-05T20:18:21.456Z,99890.69
2023-05-05T20:23:23.156Z,99870.69
2023-05-05T20:28:24.808Z,99816.47
2023-05-05T20:33:27.155Z,99866.72
2023-05-05T20:38:28.840Z,99894.34
2023-05-05T20:43:30.629Z,99887.16
2023-05-05T20:48:32.227Z,99869.16
2023-05-05T20:53:33.966Z,99901.00
2023-05-05T20:58:35.619Z,99906.03
2023-05-05T21:03:37.481Z,99877.88
2023-05-05T21:08:39.655Z,99845.41
2023-05-05T21:13:41.254Z,99842.16
2023-05-05T21:18:46.683Z,99876.94
2023-05-05T21:23:48.267Z,99861.47
2023-05-05T21:28:49.830Z,99889.63
2023-05-05T21:33:51.385Z,99900.59
2023-05-05T21:38:57.109Z,99855.41
2023-05-05T21:44:00.026Z,99892.84
2023-05-05T21:49:12.820Z,99883.28
2023-05-05T21:54:14.445Z,99852.94
2023-05-05T21:59:17.176Z,99909.47
2023-05-05T22:04:19.109Z,99890.31
2023-05-05T22:09:20.961Z,99880.63
2023-05-05T22:14:22.541Z,99887.72
2023-05-05T22:19:24.088Z,99859.25
2023-05-05T22:24:25.774Z,99860.03
2023-05-05T22:29:27.500Z,99888.84
2023-05-05T22:34:29.196Z,99870.00
2023-05-05T22:39:30.794Z,99861.25
2023-05-05T22:44:32.516Z,99891.50
2023-05-05T22:49:34.287Z,99852.34
2023-05-05T22:54:36.153Z,99911.41
2023-05-05T22:59:37.789Z,99906.19
2023-05-05T23:04:39.455Z,99922.75
2023-05-05T23:09:41.164Z,99933.09
2023-05-05T23:14:42.797Z,99933.44
2023-05-05T23:19:47.794Z,99920.25
2023-05-05T23:24:49.364Z,99920.69
2023-05-05T23:29:51.066Z,99928.41
2023-05-05T23:34:52.709Z,99894.56
2023-05-05T23:39:54.463Z,99919.44
2023-05-05T23:44:56.107Z,99949.22
2023-05-05T23:49:57.719Z,99938.72
2023-05-05T23:54:59.244Z,99922.53
